sensor_id;sensor_type;location;lat;lon;timestamp;P1;durP1;ratioP1;P2;durP2;ratioP2
53521;SDS011;39398;48.382;9.802;2023-05-07T00:03:55;5.80;;;3.75;;
53521;SDS011;39398;48.382;9.802;2023-05-07T00:09:01;5.22;;;4.05;;
53521;SDS011;39398;48.382;9.802;2023-05-07T00:14:02;8.35;;;4.30;;
53521;SDS011;39398;48.382;9.802;2023-05-07T00:19:04;6.32;;;4.15;;
53521;SDS011;39398;48.382;9.802;2023-05-07T00:24:08;4.45;;;3.80;;
53521;SDS011;39398;48.382;9.802;2023-05-07T00:29:14;7.07;;;4.20;;
53521;SDS011;39398;48.382;9.802;2023-05-07T00:34:16;5.15;;;3.85;;
53521;SDS011;39398;48.382;9.802;2023-05-07T00:39:19;4.68;;;4.25;;
53521;SDS011;39398;48.382;9.802;2023-05-07T00:44:20;6.03;;;4.20;;
53521;SDS011;39398;48.382;9.802;2023-05-07T00:49:22;7.65;;;4.50;;
53521;SDS011;39398;48.382;9.802;2023-05-07T00:54:29;4.97;;;4.10;;
53521;SDS011;39398;48.382;9.802;2023-05-07T00:59:31;5.00;;;3.97;;
53521;SDS011;39398;48.382;9.802;2023-05-07T01:04:33;7.40;;;4.35;;
53521;SDS011;39398;48.382;9.802;2023-05-07T01:09:39;5.60;;;4.88;;
53521;SDS011;39398;48.382;9.802;2023-05-07T01:14:48;8.75;;;4.72;;
53521;SDS011;39398;48.382;9.802;2023-05-07T01:19:50;5.60;;;4.60;;
53521;SDS011;39398;48.382;9.802;2023-05-07T01:24:53;7.82;;;5.05;;
53521;SDS011;39398;48.382;9.802;2023-05-07T01:29:58;9.55;;;4.90;;
53521;SDS011;39398;48.382;9.802;2023-05-07T01:35:00;6.38;;;4.80;;
53521;SDS011;39398;48.382;9.802;2023-05-07T01:40:08;7.97;;;4.97;;
53521;SDS011;39398;48.382;9.802;2023-05-07T01:45:20;6.68;;;5.00;;
53521;SDS011;39398;48.382;9.802;2023-05-07T01:50:25;8.65;;;4.53;;
53521;SDS011;39398;48.382;9.802;2023-05-07T01:55:31;6.15;;;4.60;;
53521;SDS011;39398;48.382;9.802;2023-05-07T02:00:32;5.72;;;4.82;;
53521;SDS011;39398;48.382;9.802;2023-05-07T02:05:36;6.97;;;5.10;;
53521;SDS011;39398;48.382;9.802;2023-05-07T02:10:39;6.63;;;5.10;;
53521;SDS011;39398;48.382;9.802;2023-05-07T02:15:50;6.38;;;4.80;;
53521;SDS011;39398;48.382;9.802;2023-05-07T02:20:52;6.55;;;4.72;;
53521;SDS011;39398;48.382;9.802;2023-05-07T02:25:55;6.68;;;4.90;;
53521;SDS011;39398;48.382;9.802;2023-05-07T02:31:05;7.88;;;4.85;;
53521;SDS011;39398;48.382;9.802;2023-05-07T02:42:12;11.57;;;5.90;;
53521;SDS011;39398;48.382;9.802;2023-05-07T02:47:14;9.98;;;5.22;;
53521;SDS011;39398;48.382;9.802;2023-05-07T02:52:16;8.73;;;5.65;;
53521;SDS011;39398;48.382;9.802;2023-05-07T02:57:19;8.57;;;5.70;;
53521;SDS011;39398;48.382;9.802;2023-05-07T03:02:21;6.35;;;4.78;;
53521;SDS011;39398;48.382;9.802;2023-05-07T03:07:22;8.95;;;5.05;;
53521;SDS011;39398;48.382;9.802;2023-05-07T03:12:25;7.72;;;5.70;;
53521;SDS011;39398;48.382;9.802;2023-05-07T03:17:27;8.30;;;5.40;;
53521;SDS011;39398;48.382;9.802;2023-05-07T03:22:29;10.98;;;6.13;;
53521;SDS011;39398;48.382;9.802;2023-05-07T03:27:33;9.02;;;5.57;;
53521;SDS011;39398;48.382;9.802;2023-05-07T03:32:35;6.70;;;5.05;;
53521;SDS011;39398;48.382;9.802;2023-05-07T03:37:37;9.13;;;6.38;;
53521;SDS011;39398;48.382;9.802;2023-05-07T03:42:40;9.27;;;6.00;;
53521;SDS011;39398;48.382;9.802;2023-05-07T03:47:44;6.95;;;5.22;;
53521;SDS011;39398;48.382;9.802;2023-05-07T03:53:11;7.50;;;5.07;;
53521;SDS011;39398;48.382;9.802;2023-05-07T03:58:14;9.90;;;6.28;;
53521;SDS011;39398;48.382;9.802;2023-05-07T04:03:17;9.00;;;6.05;;
53521;SDS011;39398;48.382;9.802;2023-05-07T04:08:19;11.85;;;6.35;;
53521;SDS011;39398;48.382;9.802;2023-05-07T04:13:22;9.90;;;5.68;;
53521;SDS011;39398;48.382;9.802;2023-05-07T04:18:24;9.05;;;6.03;;
53521;SDS011;39398;48.382;9.802;2023-05-07T04:23:26;8.65;;;6.30;;
53521;SDS011;39398;48.382;9.802;2023-05-07T04:28:29;8.98;;;6.00;;
53521;SDS011;39398;48.382;9.802;2023-05-07T04:33:30;9.60;;;6.75;;
53521;SDS011;39398;48.382;9.802;2023-05-07T04:38:33;10.02;;;6.38;;
53521;SDS011;39398;48.382;9.802;2023-05-07T04:43:36;9.45;;;6.38;;
53521;SDS011;39398;48.382;9.802;2023-05-07T04:48:37;7.47;;;6.07;;
53521;SDS011;39398;48.382;9.802;2023-05-07T04:53:42;10.00;;;6.47;;
53521;SDS011;39398;48.382;9.802;2023-05-07T04:58:45;7.80;;;5.13;;
53521;SDS011;39398;48.382;9.802;2023-05-07T05:03:46;8.70;;;6.43;;
53521;SDS011;39398;48.382;9.802;2023-05-07T05:08:48;8.35;;;5.72;;
53521;SDS011;39398;48.382;9.802;2023-05-07T05:13:51;11.35;;;6.07;;
53521;SDS011;39398;48.382;9.802;2023-05-07T05:18:53;8.15;;;5.97;;
53521;SDS011;39398;48.382;9.802;2023-05-07T05:24:08;8.52;;;5.95;;
53521;SDS011;39398;48.382;9.802;2023-05-07T05:29:11;9.98;;;5.65;;
53521;SDS011;39398;48.382;9.802;2023-05-07T05:34:13;6.40;;;5.68;;
53521;SDS011;39398;48.382;9.802;2023-05-07T05:39:16;9.57;;;6.00;;
53521;SDS011;39398;48.382;9.802;2023-05-07T05:44:33;8.03;;;5.97;;
53521;SDS011;39398;48.382;9.802;2023-05-07T05:49:35;7.50;;;5.55;;
53521;SDS011;39398;48.382;9.802;2023-05-07T05:54:36;7.88;;;5.25;;
53521;SDS011;39398;48.382;9.802;2023-05-07T05:59:39;6.47;;;5.07;;
53521;SDS011;39398;48.382;9.802;2023-05-07T06:04:42;7.57;;;5.30;;
53521;SDS011;39398;48.382;9.802;2023-05-07T06:09:47;8.70;;;6.30;;
53521;SDS011;39398;48.382;9.802;2023-05-07T06:14:50;7.93;;;4.85;;
53521;SDS011;39398;48.382;9.802;2023-05-07T06:19:51;7.18;;;4.38;;
53521;SDS011;39398;48.382;9.802;2023-05-07T06:24:53;6.32;;;4.60;;
53521;SDS011;39398;48.382;9.802;2023-05-07T06:29:56;9.13;;;4.38;;
53521;SDS011;39398;48.382;9.802;2023-05-07T06:34:58;8.93;;;5.10;;
53521;SDS011;39398;48.382;9.802;2023-05-07T06:39:59;12.48;;;5.35;;
53521;SDS011;39398;48.382;9.802;2023-05-07T06:45:03;9.35;;;5.47;;
53521;SDS011;39398;48.382;9.802;2023-05-07T06:50:06;7.75;;;6.03;;
53521;SDS011;39398;48.382;9.802;2023-05-07T06:55:09;9.07;;;4.78;;
53521;SDS011;39398;48.382;9.802;2023-05-07T07:00:12;6.35;;;5.13;;
53521;SDS011;39398;48.382;9.802;2023-05-07T07:05:15;9.25;;;5.68;;
53521;SDS011;39398;48.382;9.802;2023-05-07T07:10:16;7.35;;;5.07;;
53521;SDS011;39398;48.382;9.802;2023-05-07T07:15:19;6.18;;;5.30;;
53521;SDS011;39398;48.382;9.802;2023-05-07T07:20:21;7.20;;;5.78;;
53521;SDS011;39398;48.382;9.802;2023-05-07T07:25:30;7.60;;;5.05;;
53521;SDS011;39398;48.382;9.802;2023-05-07T07:30:34;6.38;;;5.03;;
53521;SDS011;39398;48.382;9.802;2023-05-07T07:35:36;6.25;;;4.70;;
53521;SDS011;39398;48.382;9.802;2023-05-07T07:40:39;6.32;;;5.72;;
53521;SDS011;39398;48.382;9.802;2023-05-07T07:45:42;7.55;;;5.32;;
53521;SDS011;39398;48.382;9.802;2023-05-07T07:50:48;5.72;;;5.05;;
53521;SDS011;39398;48.382;9.802;2023-05-07T07:55:50;6.57;;;5.20;;
53521;SDS011;39398;48.382;9.802;2023-05-07T08:01:01;6.90;;;4.88;;
53521;SDS011;39398;48.382;9.802;2023-05-07T08:06:03;5.55;;;5.00;;
53521;SDS011;39398;48.382;9.802;2023-05-07T08:11:04;7.75;;;4.93;;
53521;SDS011;39398;48.382;9.802;2023-05-07T08:16:07;5.22;;;4.75;;
53521;SDS011;39398;48.382;9.802;2023-05-07T08:21:09;7.57;;;5.10;;
53521;SDS011;39398;48.382;9.802;2023-05-07T08:26:12;6.72;;;4.90;;
53521;SDS011;39398;48.382;9.802;2023-05-07T08:31:15;7.72;;;5.35;;
53521;SDS011;39398;48.382;9.802;2023-05-07T08:36:29;5.88;;;4.68;;
53521;SDS011;39398;48.382;9.802;2023-05-07T08:41:34;8.63;;;4.95;;
53521;SDS011;39398;48.382;9.802;2023-05-07T08:46:41;8.52;;;4.28;;
53521;SDS011;39398;48.382;9.802;2023-05-07T08:51:43;5.18;;;4.68;;
53521;SDS011;39398;48.382;9.802;2023-05-07T08:56:45;6.63;;;4.47;;
53521;SDS011;39398;48.382;9.802;2023-05-07T09:01:49;7.53;;;3.88;;
53521;SDS011;39398;48.382;9.802;2023-05-07T09:06:51;7.72;;;4.00;;
53521;SDS011;39398;48.382;9.802;2023-05-07T09:11:56;5.35;;;4.10;;
53521;SDS011;39398;48.382;9.802;2023-05-07T09:16:59;5.35;;;4.05;;
53521;SDS011;39398;48.382;9.802;2023-05-07T09:22:01;5.57;;;3.90;;
53521;SDS011;39398;48.382;9.802;2023-05-07T09:27:04;4.53;;;3.80;;
53521;SDS011;39398;48.382;9.802;2023-05-07T09:32:09;6.10;;;4.28;;
53521;SDS011;39398;48.382;9.802;2023-05-07T09:37:12;4.78;;;3.83;;
53521;SDS011;39398;48.382;9.802;2023-05-07T09:42:22;4.50;;;3.35;;
53521;SDS011;39398;48.382;9.802;2023-05-07T09:47:29;7.00;;;3.35;;
53521;SDS011;39398;48.382;9.802;2023-05-07T09:52:33;4.78;;;3.38;;
53521;SDS011;39398;48.382;9.802;2023-05-07T09:57:37;3.72;;;3.33;;
53521;SDS011;39398;48.382;9.802;2023-05-07T10:02:45;3.85;;;3.42;;
53521;SDS011;39398;48.382;9.802;2023-05-07T10:07:48;4.13;;;3.40;;
53521;SDS011;39398;48.382;9.802;2023-05-07T10:12:50;4.18;;;3.42;;
53521;SDS011;39398;48.382;9.802;2023-05-07T10:17:54;5.15;;;3.47;;
53521;SDS011;39398;48.382;9.802;2023-05-07T10:22:58;6.13;;;4.82;;
53521;SDS011;39398;48.382;9.802;2023-05-07T10:28:03;4.85;;;4.20;;
53521;SDS011;39398;48.382;9.802;2023-05-07T10:33:10;3.47;;;3.17;;
53521;SDS011;39398;48.382;9.802;2023-05-07T10:38:17;4.40;;;2.90;;
53521;SDS011;39398;48.382;9.802;2023-05-07T10:43:19;3.35;;;2.80;;
53521;SDS011;39398;48.382;9.802;2023-05-07T10:48:22;5.05;;;3.10;;
53521;SDS011;39398;48.382;9.802;2023-05-07T10:53:32;3.85;;;3.33;;
53521;SDS011;39398;48.382;9.802;2023-05-07T10:58:36;6.22;;;3.67;;
53521;SDS011;39398;48.382;9.802;2023-05-07T11:09:15;4.72;;;4.22;;
53521;SDS011;39398;48.382;9.802;2023-05-07T11:19:52;5.22;;;4.20;;
53521;SDS011;39398;48.382;9.802;2023-05-07T11:24:55;5.38;;;3.10;;
53521;SDS011;39398;48.382;9.802;2023-05-07T11:29:57;3.88;;;3.47;;
53521;SDS011;39398;48.382;9.802;2023-05-07T11:35:02;5.88;;;4.15;;
53521;SDS011;39398;48.382;9.802;2023-05-07T11:40:05;7.03;;;4.05;;
53521;SDS011;39398;48.382;9.802;2023-05-07T11:45:10;3.42;;;2.80;;
53521;SDS011;39398;48.382;9.802;2023-05-07T11:50:15;3.55;;;3.25;;
53521;SDS011;39398;48.382;9.802;2023-05-07T11:55:19;6.28;;;2.40;;
53521;SDS011;39398;48.382;9.802;2023-05-07T12:00:28;7.53;;;6.82;;
53521;SDS011;39398;48.382;9.802;2023-05-07T12:05:31;3.08;;;2.72;;
53521;SDS011;39398;48.382;9.802;2023-05-07T12:10:33;3.05;;;2.53;;
53521;SDS011;39398;48.382;9.802;2023-05-07T12:15:35;3.45;;;2.90;;
53521;SDS011;39398;48.382;9.802;2023-05-07T12:20:38;2.83;;;2.45;;
53521;SDS011;39398;48.382;9.802;2023-05-07T12:25:43;3.80;;;2.78;;
53521;SDS011;39398;48.382;9.802;2023-05-07T12:30:45;2.60;;;2.40;;
53521;SDS011;39398;48.382;9.802;2023-05-07T12:35:50;3.58;;;3.10;;
53521;SDS011;39398;48.382;9.802;2023-05-07T12:40:54;5.00;;;3.20;;
53521;SDS011;39398;48.382;9.802;2023-05-07T12:45:59;6.07;;;3.50;;
53521;SDS011;39398;48.382;9.802;2023-05-07T12:51:05;6.70;;;4.70;;
53521;SDS011;39398;48.382;9.802;2023-05-07T12:56:07;5.80;;;2.85;;
53521;SDS011;39398;48.382;9.802;2023-05-07T13:01:09;3.45;;;3.00;;
53521;SDS011;39398;48.382;9.802;2023-05-07T13:06:18;5.25;;;3.67;;
53521;SDS011;39398;48.382;9.802;2023-05-07T13:11:22;5.88;;;3.03;;
53521;SDS011;39398;48.382;9.802;2023-05-07T13:16:24;3.90;;;3.60;;
53521;SDS011;39398;48.382;9.802;2023-05-07T13:21:27;4.40;;;3.53;;
53521;SDS011;39398;48.382;9.802;2023-05-07T13:26:29;5.78;;;3.28;;
53521;SDS011;39398;48.382;9.802;2023-05-07T13:31:34;5.70;;;3.42;;
53521;SDS011;39398;48.382;9.802;2023-05-07T13:36:37;5.20;;;3.95;;
53521;SDS011;39398;48.382;9.802;2023-05-07T13:41:39;5.55;;;4.00;;
53521;SDS011;39398;48.382;9.802;2023-05-07T13:46:43;5.18;;;3.75;;
53521;SDS011;39398;48.382;9.802;2023-05-07T13:51:55;3.38;;;3.08;;
53521;SDS011;39398;48.382;9.802;2023-05-07T13:56:59;3.17;;;2.75;;
53521;SDS011;39398;48.382;9.802;2023-05-07T14:02:01;4.00;;;2.45;;
53521;SDS011;39398;48.382;9.802;2023-05-07T14:07:04;4.13;;;2.40;;
53521;SDS011;39398;48.382;9.802;2023-05-07T14:12:10;3.35;;;2.10;;
53521;SDS011;39398;48.382;9.802;2023-05-07T14:17:19;5.68;;;3.13;;
53521;SDS011;39398;48.382;9.802;2023-05-07T14:22:36;4.45;;;2.85;;
53521;SDS011;39398;48.382;9.802;2023-05-07T14:27:38;4.70;;;2.65;;
53521;SDS011;39398;48.382;9.802;2023-05-07T14:32:40;4.20;;;3.28;;
53521;SDS011;39398;48.382;9.802;2023-05-07T14:37:51;3.20;;;2.78;;
53521;SDS011;39398;48.382;9.802;2023-05-07T14:42:52;4.53;;;3.17;;
53521;SDS011;39398;48.382;9.802;2023-05-07T14:47:54;2.92;;;2.67;;
53521;SDS011;39398;48.382;9.802;2023-05-07T14:52:57;7.63;;;3.30;;
53521;SDS011;39398;48.382;9.802;2023-05-07T14:57:59;5.00;;;3.30;;
53521;SDS011;39398;48.382;9.802;2023-05-07T15:03:04;7.55;;;2.20;;
53521;SDS011;39398;48.382;9.802;2023-05-07T15:08:16;4.07;;;2.33;;
53521;SDS011;39398;48.382;9.802;2023-05-07T15:13:18;2.35;;;2.15;;
53521;SDS011;39398;48.382;9.802;2023-05-07T15:18:19;7.15;;;2.17;;
53521;SDS011;39398;48.382;9.802;2023-05-07T15:23:24;3.97;;;2.35;;
53521;SDS011;39398;48.382;9.802;2023-05-07T15:28:26;2.72;;;2.15;;
53521;SDS011;39398;48.382;9.802;2023-05-07T15:33:28;3.00;;;2.22;;
53521;SDS011;39398;48.382;9.802;2023-05-07T15:38:31;5.15;;;2.60;;
53521;SDS011;39398;48.382;9.802;2023-05-07T15:43:32;2.20;;;1.95;;
53521;SDS011;39398;48.382;9.802;2023-05-07T15:48:34;3.55;;;3.00;;
53521;SDS011;39398;48.382;9.802;2023-05-07T15:53:37;3.80;;;2.88;;
53521;SDS011;39398;48.382;9.802;2023-05-07T15:58:41;4.50;;;2.70;;
53521;SDS011;39398;48.382;9.802;2023-05-07T16:03:43;6.70;;;3.25;;
53521;SDS011;39398;48.382;9.802;2023-05-07T16:08:46;5.57;;;3.30;;
53521;SDS011;39398;48.382;9.802;2023-05-07T16:13:47;8.50;;;3.95;;
53521;SDS011;39398;48.382;9.802;2023-05-07T16:18:53;5.78;;;3.70;;
53521;SDS011;39398;48.382;9.802;2023-05-07T16:24:00;9.55;;;4.80;;
53521;SDS011;39398;48.382;9.802;2023-05-07T16:29:02;12.07;;;4.15;;
53521;SDS011;39398;48.382;9.802;2023-05-07T16:34:05;6.95;;;3.72;;
53521;SDS011;39398;48.382;9.802;2023-05-07T16:39:10;4.28;;;3.08;;
53521;SDS011;39398;48.382;9.802;2023-05-07T16:44:12;6.28;;;3.50;;
53521;SDS011;39398;48.382;9.802;2023-05-07T16:49:15;5.65;;;4.25;;
53521;SDS011;39398;48.382;9.802;2023-05-07T16:54:18;8.77;;;4.65;;
53521;SDS011;39398;48.382;9.802;2023-05-07T16:59:21;7.40;;;2.50;;
53521;SDS011;39398;48.382;9.802;2023-05-07T17:04:23;4.97;;;2.72;;
53521;SDS011;39398;48.382;9.802;2023-05-07T17:09:26;4.50;;;3.20;;
53521;SDS011;39398;48.382;9.802;2023-05-07T17:14:27;2.45;;;2.25;;
53521;SDS011;39398;48.382;9.802;2023-05-07T17:19:29;1.63;;;1.52;;
53521;SDS011;39398;48.382;9.802;2023-05-07T17:24:32;4.25;;;1.58;;
53521;SDS011;39398;48.382;9.802;2023-05-07T17:29:34;1.20;;;1.10;;
53521;SDS011;39398;48.382;9.802;2023-05-07T17:34:36;1.02;;;1.00;;
53521;SDS011;39398;48.382;9.802;2023-05-07T17:39:40;0.93;;;0.90;;
53521;SDS011;39398;48.382;9.802;2023-05-07T17:44:45;1.77;;;1.00;;
53521;SDS011;39398;48.382;9.802;2023-05-07T17:49:50;0.87;;;0.87;;
53521;SDS011;39398;48.382;9.802;2023-05-07T17:54:53;1.30;;;0.70;;
53521;SDS011;39398;48.382;9.802;2023-05-07T17:59:54;3.00;;;1.00;;
53521;SDS011;39398;48.382;9.802;2023-05-07T18:04:57;1.45;;;0.80;;
53521;SDS011;39398;48.382;9.802;2023-05-07T18:10:00;1.60;;;1.33;;
53521;SDS011;39398;48.382;9.802;2023-05-07T18:15:02;1.30;;;1.20;;
53521;SDS011;39398;48.382;9.802;2023-05-07T18:20:06;4.10;;;1.40;;
53521;SDS011;39398;48.382;9.802;2023-05-07T18:25:14;2.22;;;1.27;;
53521;SDS011;39398;48.382;9.802;2023-05-07T18:30:16;2.67;;;1.15;;
53521;SDS011;39398;48.382;9.802;2023-05-07T18:35:18;1.90;;;1.40;;
53521;SDS011;39398;48.382;9.802;2023-05-07T18:40:21;1.77;;;1.38;;
53521;SDS011;39398;48.382;9.802;2023-05-07T18:45:27;3.28;;;1.45;;
53521;SDS011;39398;48.382;9.802;2023-05-07T18:50:29;1.55;;;1.45;;
53521;SDS011;39398;48.382;9.802;2023-05-07T18:55:34;2.60;;;2.05;;
53521;SDS011;39398;48.382;9.802;2023-05-07T19:00:35;4.38;;;2.35;;
53521;SDS011;39398;48.382;9.802;2023-05-07T19:05:37;5.50;;;2.55;;
53521;SDS011;39398;48.382;9.802;2023-05-07T19:10:40;2.45;;;2.20;;
53521;SDS011;39398;48.382;9.802;2023-05-07T19:15:42;2.83;;;2.05;;
53521;SDS011;39398;48.382;9.802;2023-05-07T19:20:43;2.50;;;2.30;;
53521;SDS011;39398;48.382;9.802;2023-05-07T19:25:49;4.93;;;3.15;;
53521;SDS011;39398;48.382;9.802;2023-05-07T19:30:51;5.32;;;3.10;;
53521;SDS011;39398;48.382;9.802;2023-05-07T19:35:56;6.20;;;2.90;;
53521;SDS011;39398;48.382;9.802;2023-05-07T19:41:00;5.10;;;3.10;;
53521;SDS011;39398;48.382;9.802;2023-05-07T19:46:01;2.70;;;2.25;;
53521;SDS011;39398;48.382;9.802;2023-05-07T19:51:03;3.40;;;2.50;;
53521;SDS011;39398;48.382;9.802;2023-05-07T19:56:07;2.80;;;2.38;;
53521;SDS011;39398;48.382;9.802;2023-05-07T20:01:10;2.97;;;2.58;;
53521;SDS011;39398;48.382;9.802;2023-05-07T20:06:12;5.90;;;2.92;;
53521;SDS011;39398;48.382;9.802;2023-05-07T20:11:18;4.00;;;3.60;;
53521;SDS011;39398;48.382;9.802;2023-05-07T20:16:21;4.47;;;2.90;;
53521;SDS011;39398;48.382;9.802;2023-05-07T20:21:23;3.03;;;2.72;;
53521;SDS011;39398;48.382;9.802;2023-05-07T20:26:26;4.05;;;3.10;;
53521;SDS011;39398;48.382;9.802;2023-05-07T20:31:29;3.90;;;3.53;;
53521;SDS011;39398;48.382;9.802;2023-05-07T20:36:31;3.72;;;3.00;;
53521;SDS011;39398;48.382;9.802;2023-05-07T20:41:34;3.40;;;3.10;;
53521;SDS011;39398;48.382;9.802;2023-05-07T20:46:36;3.15;;;2.85;;
53521;SDS011;39398;48.382;9.802;2023-05-07T20:51:38;3.45;;;3.15;;
53521;SDS011;39398;48.382;9.802;2023-05-07T20:56:41;3.67;;;3.38;;
53521;SDS011;39398;48.382;9.802;2023-05-07T21:01:43;6.05;;;3.05;;
53521;SDS011;39398;48.382;9.802;2023-05-07T21:06:44;4.25;;;3.05;;
53521;SDS011;39398;48.382;9.802;2023-05-07T21:11:50;5.00;;;3.13;;
53521;SDS011;39398;48.382;9.802;2023-05-07T21:16:52;5.43;;;3.10;;
53521;SDS011;39398;48.382;9.802;2023-05-07T21:22:01;6.13;;;3.47;;
53521;SDS011;39398;48.382;9.802;2023-05-07T21:27:07;4.78;;;3.28;;
53521;SDS011;39398;48.382;9.802;2023-05-07T21:32:08;3.42;;;3.13;;
53521;SDS011;39398;48.382;9.802;2023-05-07T21:37:12;5.40;;;3.40;;
53521;SDS011;39398;48.382;9.802;2023-05-07T21:42:18;6.07;;;3.50;;
53521;SDS011;39398;48.382;9.802;2023-05-07T21:47:23;5.77;;;3.57;;
53521;SDS011;39398;48.382;9.802;2023-05-07T21:52:25;8.38;;;4.03;;
53521;SDS011;39398;48.382;9.802;2023-05-07T21:57:28;13.68;;;4.05;;
53521;SDS011;39398;48.382;9.802;2023-05-07T22:02:30;429.42;;;20.48;;
53521;SDS011;39398;48.382;9.802;2023-05-07T22:07:32;588.50;;;28.08;;
53521;SDS011;39398;48.382;9.802;2023-05-07T22:18:38;10.55;;;6.30;;
53521;SDS011;39398;48.382;9.802;2023-05-07T22:23:40;6.43;;;4.90;;
53521;SDS011;39398;48.382;9.802;2023-05-07T22:28:42;9.15;;;5.10;;
53521;SDS011;39398;48.382;9.802;2023-05-07T22:33:51;7.15;;;5.20;;
53521;SDS011;39398;48.382;9.802;2023-05-07T22:38:52;4.90;;;4.22;;
53521;SDS011;39398;48.382;9.802;2023-05-07T22:43:54;3.80;;;3.35;;
53521;SDS011;39398;48.382;9.802;2023-05-07T22:48:59;5.38;;;4.50;;
53521;SDS011;39398;48.382;9.802;2023-05-07T22:54:01;74.30;;;7.85;;
53521;SDS011;39398;48.382;9.802;2023-05-07T22:59:05;6.70;;;5.43;;
53521;SDS011;39398;48.382;9.802;2023-05-07T23:04:08;7.35;;;5.40;;
53521;SDS011;39398;48.382;9.802;2023-05-07T23:09:10;7.13;;;5.68;;
53521;SDS011;39398;48.382;9.802;2023-05-07T23:14:12;8.02;;;5.57;;
53521;SDS011;39398;48.382;9.802;2023-05-07T23:19:15;7.03;;;5.28;;
53521;SDS011;39398;48.382;9.802;2023-05-07T23:24:16;7.68;;;5.97;;
53521;SDS011;39398;48.382;9.802;2023-05-07T23:29:20;6.35;;;5.00;;
53521;SDS011;39398;48.382;9.802;2023-05-07T23:34:23;6.05;;;5.45;;
53521;SDS011;39398;48.382;9.802;2023-05-07T23:39:25;5.85;;;5.03;;
53521;SDS011;39398;48.382;9.802;2023-05-07T23:44:27;4.88;;;4.00;;
53521;SDS011;39398;48.382;9.802;2023-05-07T23:49:30;6.45;;;4.85;;
53521;SDS011;39398;48.382;9.802;2023-05-07T23:54:31;6.47;;;4.95;;
53521;SDS011;39398;48.382;9.802;2023-05-07T23:59:36;6.20;;;5.03;;
